createdAt,value
2022-07-29T00:00:06.134Z,12.28
2022-07-29T00:02:33.219Z,12.19
2022-07-29T00:05:00.239Z,12.04
2022-07-29T00:07:27.164Z,12.08
2022-07-29T00:09:54.127Z,12.05
2022-07-29T00:12:25.541Z,12.05
2022-07-29T00:14:57.886Z,12.00
2022-07-29T00:17:25.481Z,11.93
2022-07-29T00:19:52.686Z,11.98
2022-07-29T00:22:20.480Z,11.87
2022-07-29T00:24:50.106Z,11.89
2022-07-29T00:27:17.875Z,11.85
2022-07-29T00:29:44.637Z,11.79
2022-07-29T00:32:11.461Z,11.83
2022-07-29T00:34:56.685Z,11.77
2022-07-29T00:37:23.567Z,11.74
2022-07-29T00:39:50.307Z,11.83
2022-07-29T00:42:17.725Z,11.78
2022-07-29T00:44:44.909Z,11.83
2022-07-29T00:47:12.838Z,11.69
2022-07-29T00:49:43.259Z,11.81
2022-07-29T00:52:11.701Z,11.81
2022-07-29T00:54:44.660Z,11.79
2022-07-29T00:57:12.349Z,11.62
2022-07-29T00:59:39.161Z,11.71
2022-07-29T01:02:06.800Z,11.53
2022-07-29T01:04:34.375Z,11.58
2022-07-29T01:07:03.057Z,11.56
2022-07-29T01:09:43.168Z,11.51
2022-07-29T01:12:20.165Z,11.55
2022-07-29T01:14:48.379Z,11.49
2022-07-29T01:17:53.364Z,11.48
2022-07-29T01:20:45.026Z,11.43
2022-07-29T01:23:14.871Z,11.38
2022-07-29T01:26:16.491Z,11.33
2022-07-29T01:29:13.767Z,11.30
2022-07-29T01:31:58.776Z,11.38
2022-07-29T01:34:33.581Z,11.28
2022-07-29T01:37:10.179Z,11.24
2022-07-29T01:39:39.648Z,11.24
2022-07-29T01:42:06.737Z,11.18
2022-07-29T01:44:51.726Z,11.11
2022-07-29T01:47:22.388Z,11.09
2022-07-29T01:49:52.372Z,11.07
2022-07-29T01:52:40.594Z,11.05
2022-07-29T01:55:18.874Z,11.11
2022-07-29T01:57:48.609Z,11.12
2022-07-29T02:00:17.006Z,11.16
2022-07-29T02:02:46.761Z,11.14
2022-07-29T02:05:16.758Z,11.10
2022-07-29T02:07:45.387Z,11.14
2022-07-29T02:10:14.243Z,11.14
2022-07-29T02:12:43.371Z,11.23
2022-07-29T02:15:17.894Z,11.19
2022-07-29T02:17:49.887Z,11.19
2022-07-29T02:20:17.382Z,11.16
2022-07-29T02:22:46.186Z,11.16
2022-07-29T02:25:14.922Z,11.15
2022-07-29T02:27:43.566Z,11.07
2022-07-29T02:30:11.719Z,11.09
2022-07-29T02:32:41.132Z,11.05
2022-07-29T02:35:10.238Z,11.07
2022-07-29T02:37:38.588Z,11.02
2022-07-29T02:40:09.933Z,11.02
2022-07-29T02:42:38.295Z,10.95
2022-07-29T02:45:07.046Z,10.93
2022-07-29T02:47:44.379Z,10.89
2022-07-29T02:50:33.688Z,10.85
2022-07-29T02:53:06.500Z,10.87
2022-07-29T02:55:41.184Z,10.87
2022-07-29T02:58:10.711Z,10.89
2022-07-29T03:00:40.024Z,10.94
2022-07-29T03:03:12.085Z,10.90
2022-07-29T03:05:40.213Z,10.94
2022-07-29T03:08:10.172Z,10.86
2022-07-29T03:10:39.830Z,10.87
2022-07-29T03:13:08.785Z,10.92
2022-07-29T03:15:36.708Z,10.99
2022-07-29T03:18:04.806Z,11.07
2022-07-29T03:20:31.858Z,11.03
2022-07-29T03:22:58.709Z,11.15
2022-07-29T03:25:25.918Z,11.15
2022-07-29T03:27:52.743Z,11.14
2022-07-29T03:30:21.911Z,11.17
2022-07-29T03:32:52.146Z,11.11
2022-07-29T03:35:21.053Z,11.27
2022-07-29T03:37:47.973Z,11.26
2022-07-29T03:40:23.003Z,11.19
2022-07-29T03:42:52.298Z,11.25
2022-07-29T03:45:20.549Z,11.38
2022-07-29T03:47:53.822Z,11.36
2022-07-29T03:50:24.296Z,11.38
2022-07-29T03:52:51.150Z,11.67
2022-07-29T03:55:17.998Z,11.75
2022-07-29T03:57:46.353Z,11.81
2022-07-29T04:00:13.568Z,11.88
2022-07-29T04:02:41.214Z,12.00
2022-07-29T04:05:13.769Z,12.13
2022-07-29T04:07:41.746Z,12.21
2022-07-29T04:10:09.752Z,12.21
2022-07-29T04:12:36.816Z,12.31
2022-07-29T04:15:05.055Z,12.43
2022-07-29T04:17:31.856Z,12.58
2022-07-29T04:19:58.798Z,12.63
2022-07-29T04:22:25.755Z,12.73
2022-07-29T04:24:54.213Z,12.73
2022-07-29T04:27:20.939Z,12.82
2022-07-29T04:29:56.515Z,12.88
2022-07-29T04:32:24.079Z,12.99
2022-07-29T04:34:50.836Z,12.97
2022-07-29T04:37:17.626Z,13.07
2022-07-29T04:39:44.354Z,13.18
2022-07-29T04:42:11.191Z,13.31
2022-07-29T04:44:39.611Z,13.38
2022-07-29T04:47:09.631Z,13.48
2022-07-29T04:49:39.167Z,13.64
2022-07-29T04:52:06.846Z,13.83
2022-07-29T04:54:34.067Z,14.00
2022-07-29T04:57:00.826Z,14.14
2022-07-29T04:59:27.986Z,14.13
2022-07-29T05:01:54.954Z,14.12
2022-07-29T05:04:21.871Z,14.07
2022-07-29T05:06:48.993Z,14.12
2022-07-29T05:09:15.915Z,14.17
2022-07-29T05:11:42.682Z,14.11
2022-07-29T05:14:09.592Z,14.27
2022-07-29T05:16:36.394Z,14.22
2022-07-29T05:19:03.220Z,14.36
2022-07-29T05:21:29.996Z,14.39
2022-07-29T05:23:56.786Z,14.52
2022-07-29T05:26:23.469Z,14.66
2022-07-29T05:28:50.312Z,14.94
2022-07-29T05:31:17.444Z,15.32
2022-07-29T05:33:44.366Z,15.66
2022-07-29T05:36:11.228Z,16.12
2022-07-29T05:38:38.378Z,16.51
2022-07-29T05:41:06.037Z,16.88
2022-07-29T05:43:33.013Z,16.62
2022-07-29T05:46:00.021Z,16.63
2022-07-29T05:48:26.888Z,16.62
2022-07-29T05:50:53.780Z,16.27
2022-07-29T05:53:21.092Z,16.52
2022-07-29T05:55:48.854Z,17.14
2022-07-29T05:58:15.652Z,17.23
2022-07-29T06:00:42.795Z,17.10
2022-07-29T06:03:09.576Z,16.79
2022-07-29T06:05:36.574Z,16.81
2022-07-29T06:08:03.646Z,17.07
2022-07-29T06:10:30.378Z,17.68
2022-07-29T06:12:57.391Z,18.13
2022-07-29T06:15:24.198Z,18.55
2022-07-29T06:17:59.412Z,17.81
2022-07-29T06:20:31.219Z,17.77
2022-07-29T06:22:58.723Z,17.87
2022-07-29T06:25:25.601Z,17.75
2022-07-29T06:27:53.174Z,17.83
2022-07-29T06:30:20.078Z,18.44
2022-07-29T06:32:47.219Z,19.01
2022-07-29T06:38:00.566Z,19.41
2022-07-29T06:40:46.193Z,19.57
2022-07-29T06:43:13.086Z,19.71
2022-07-29T06:45:42.297Z,19.75
2022-07-29T06:48:10.587Z,19.82
2022-07-29T06:50:37.498Z,19.99
2022-07-29T06:53:04.787Z,19.46
2022-07-29T06:55:31.732Z,19.38
2022-07-29T06:57:58.564Z,20.34
2022-07-29T07:00:25.439Z,20.27
2022-07-29T07:02:52.307Z,21.19
2022-07-29T07:05:19.112Z,21.55
2022-07-29T07:07:45.937Z,21.21
2022-07-29T07:10:12.840Z,21.43
2022-07-29T07:12:39.634Z,22.31
2022-07-29T07:15:07.095Z,22.34
2022-07-29T07:17:33.904Z,22.98
2022-07-29T07:20:00.652Z,22.93
2022-07-29T07:22:27.310Z,23.74
2022-07-29T07:24:54.102Z,23.88
2022-07-29T07:27:20.841Z,23.64
2022-07-29T07:29:47.589Z,24.17
2022-07-29T07:32:17.133Z,24.23
2022-07-29T07:34:44.697Z,23.91
2022-07-29T07:37:12.304Z,24.56
2022-07-29T07:39:39.135Z,24.47
2022-07-29T07:42:06.150Z,24.54
2022-07-29T07:44:36.478Z,24.69
2022-07-29T07:47:13.485Z,25.12
2022-07-29T07:49:40.248Z,25.29
2022-07-29T07:52:08.468Z,25.10
2022-07-29T07:54:35.503Z,24.45
2022-07-29T07:57:02.273Z,24.25
2022-07-29T07:59:29.048Z,24.25
2022-07-29T08:01:56.775Z,23.47
2022-07-29T08:04:28.367Z,23.68
2022-07-29T08:06:56.619Z,23.71
2022-07-29T08:09:29.746Z,23.41
2022-07-29T08:11:58.531Z,23.10
2022-07-29T08:14:25.514Z,22.80
2022-07-29T08:16:52.617Z,22.70
2022-07-29T08:19:19.536Z,22.95
2022-07-29T08:21:46.560Z,23.05
2022-07-29T08:24:31.799Z,23.10
2022-07-29T08:26:58.627Z,23.03
2022-07-29T08:29:25.448Z,22.95
2022-07-29T08:31:52.447Z,22.87
2022-07-29T08:34:19.377Z,22.61
2022-07-29T08:36:54.632Z,22.82
2022-07-29T08:39:21.469Z,22.63
2022-07-29T08:41:57.262Z,22.54
2022-07-29T08:44:30.563Z,22.92
2022-07-29T08:46:58.149Z,22.91
2022-07-29T08:49:25.001Z,22.82
2022-07-29T08:51:52.560Z,23.18
2022-07-29T08:54:19.925Z,23.56
2022-07-29T08:56:50.974Z,23.88
2022-07-29T08:59:22.001Z,23.80
2022-07-29T09:01:55.000Z,23.94
2022-07-29T09:04:23.313Z,24.14
2022-07-29T09:06:54.279Z,24.27
2022-07-29T09:09:21.062Z,23.72
2022-07-29T09:11:47.887Z,23.74
2022-07-29T09:14:14.815Z,24.11
2022-07-29T09:16:54.543Z,23.82
2022-07-29T09:19:22.484Z,24.35
2022-07-29T09:22:03.322Z,24.60
2022-07-29T09:24:47.755Z,24.33
2022-07-29T09:27:27.603Z,24.47
2022-07-29T09:30:01.888Z,24.60
2022-07-29T09:32:29.229Z,24.43
2022-07-29T09:35:22.127Z,24.46
2022-07-29T09:37:49.612Z,24.16
2022-07-29T09:40:22.007Z,24.08
2022-07-29T09:42:49.620Z,23.90
2022-07-29T09:45:30.695Z,23.82
2022-07-29T09:48:01.350Z,24.09
2022-07-29T09:50:42.107Z,24.17
2022-07-29T09:53:12.143Z,24.13
2022-07-29T09:55:52.912Z,24.13
2022-07-29T09:58:22.338Z,23.99
2022-07-29T10:00:51.887Z,24.21
2022-07-29T10:03:19.767Z,24.33
2022-07-29T10:06:04.343Z,24.63
2022-07-29T10:08:32.362Z,24.26
2022-07-29T10:11:14.059Z,24.31
2022-07-29T10:13:42.846Z,24.16
2022-07-29T10:16:10.025Z,24.38
2022-07-29T10:18:40.069Z,24.42
2022-07-29T10:21:08.072Z,24.74
2022-07-29T10:23:47.104Z,24.60
2022-07-29T10:26:15.604Z,25.37
2022-07-29T10:28:42.345Z,26.40
2022-07-29T10:31:19.714Z,26.64
2022-07-29T10:34:25.562Z,27.20
2022-07-29T10:36:55.498Z,27.00
2022-07-29T10:39:41.691Z,27.85
2022-07-29T10:42:29.652Z,27.73
2022-07-29T10:45:00.672Z,27.20
2022-07-29T10:47:28.041Z,27.37
2022-07-29T10:50:05.865Z,27.38
2022-07-29T10:53:05.215Z,26.86
2022-07-29T10:55:45.556Z,26.81
2022-07-29T10:58:20.067Z,26.43
2022-07-29T11:00:50.509Z,26.63
2022-07-29T11:03:52.197Z,26.91
2022-07-29T11:06:26.551Z,26.58
2022-07-29T11:09:18.307Z,26.34
2022-07-29T11:11:58.378Z,26.25
2022-07-29T11:15:03.620Z,26.51
2022-07-29T11:17:47.057Z,26.26
2022-07-29T11:20:39.632Z,25.94
2022-07-29T11:23:33.858Z,25.80
2022-07-29T11:26:12.874Z,25.60
2022-07-29T11:28:50.794Z,25.56
2022-07-29T11:31:36.109Z,25.46
2022-07-29T11:34:33.217Z,25.42
2022-07-29T11:37:07.675Z,25.54
2022-07-29T11:39:37.040Z,25.67
2022-07-29T11:42:32.528Z,25.49
2022-07-29T11:45:08.889Z,26.03
2022-07-29T11:50:46.297Z,26.24
2022-07-29T11:53:16.260Z,26.55
2022-07-29T11:55:50.577Z,26.41
2022-07-29T11:58:26.333Z,26.65
2022-07-29T12:00:55.727Z,27.00
2022-07-29T12:03:33.301Z,27.29
2022-07-29T12:06:02.525Z,27.12
2022-07-29T12:08:30.475Z,26.75
2022-07-29T12:10:57.346Z,26.77
2022-07-29T12:13:37.140Z,26.93
2022-07-29T12:16:05.638Z,27.07
2022-07-29T12:18:33.076Z,26.91
2022-07-29T12:21:04.570Z,26.40
2022-07-29T12:23:35.567Z,26.21
2022-07-29T12:26:07.587Z,26.25
2022-07-29T12:28:39.667Z,26.03
2022-07-29T12:31:08.256Z,26.30
2022-07-29T12:33:36.151Z,26.22
2022-07-29T12:36:10.318Z,26.11
2022-07-29T12:38:41.891Z,26.06
2022-07-29T12:41:09.431Z,25.94
2022-07-29T12:43:36.591Z,25.88
2022-07-29T12:46:15.247Z,25.54
2022-07-29T12:48:43.709Z,25.48
2022-07-29T12:51:12.821Z,25.61
2022-07-29T12:53:40.103Z,25.60
2022-07-29T12:56:40.518Z,25.79
2022-07-29T12:59:22.704Z,25.77
2022-07-29T13:01:52.243Z,25.90
2022-07-29T13:04:31.948Z,26.09
2022-07-29T13:07:04.419Z,26.33
2022-07-29T13:10:17.923Z,26.45
2022-07-29T13:13:10.232Z,26.86
2022-07-29T13:15:50.032Z,27.16
2022-07-29T13:18:34.536Z,27.30
2022-07-29T13:21:16.639Z,27.27
2022-07-29T13:23:45.895Z,27.14
2022-07-29T13:26:12.888Z,26.97
2022-07-29T13:28:39.606Z,26.93
2022-07-29T13:31:06.536Z,27.13
2022-07-29T13:33:33.392Z,26.92
2022-07-29T13:36:00.132Z,27.49
2022-07-29T13:38:31.061Z,27.41
2022-07-29T13:40:58.821Z,27.49
2022-07-29T13:43:25.560Z,27.41
2022-07-29T13:45:53.020Z,27.31
2022-07-29T13:48:19.852Z,27.17
2022-07-29T13:50:47.569Z,27.15
2022-07-29T13:53:17.852Z,27.65
2022-07-29T13:55:45.317Z,27.79
2022-07-29T13:58:12.125Z,27.78
2022-07-29T14:00:38.916Z,27.67
2022-07-29T14:03:07.313Z,27.68
2022-07-29T14:05:34.045Z,27.51
2022-07-29T14:08:00.744Z,27.22
2022-07-29T14:10:27.500Z,26.98
2022-07-29T14:12:54.234Z,26.46
2022-07-29T14:15:21.288Z,26.64
2022-07-29T14:17:48.022Z,26.35
2022-07-29T14:20:16.460Z,26.32
2022-07-29T14:22:45.099Z,26.17
2022-07-29T14:25:14.885Z,26.53
2022-07-29T14:27:44.198Z,26.48
2022-07-29T14:30:11.565Z,26.26
2022-07-29T14:32:38.388Z,26.21
2022-07-29T14:35:06.513Z,26.48
2022-07-29T14:37:39.043Z,26.49
2022-07-29T14:40:09.234Z,27.02
2022-07-29T14:42:37.083Z,27.20
2022-07-29T14:45:05.637Z,27.72
2022-07-29T14:47:32.578Z,27.61
2022-07-29T14:49:59.464Z,27.79
2022-07-29T14:52:26.553Z,27.52
2022-07-29T14:54:53.402Z,27.17
2022-07-29T14:57:20.762Z,27.26
2022-07-29T14:59:47.485Z,27.58
2022-07-29T15:02:14.406Z,27.71
2022-07-29T15:04:41.314Z,27.35
2022-07-29T15:07:09.290Z,27.50
2022-07-29T15:09:36.340Z,27.31
2022-07-29T15:12:08.963Z,27.05
2022-07-29T15:14:35.798Z,27.30
2022-07-29T15:17:02.694Z,27.20
2022-07-29T15:19:31.554Z,26.84
2022-07-29T15:21:59.758Z,27.01
2022-07-29T15:24:27.034Z,27.24
2022-07-29T15:26:55.105Z,27.07
2022-07-29T15:29:22.377Z,26.96
2022-07-29T15:31:49.304Z,26.45
2022-07-29T15:34:16.622Z,26.62
2022-07-29T15:36:52.949Z,26.68
2022-07-29T15:39:20.989Z,27.38
2022-07-29T15:41:47.909Z,27.35
2022-07-29T15:44:15.376Z,27.71
2022-07-29T15:47:01.773Z,27.88
2022-07-29T15:49:47.886Z,28.71
2022-07-29T15:52:26.086Z,27.99
2022-07-29T15:54:55.465Z,27.93
2022-07-29T15:57:22.919Z,27.56
2022-07-29T15:59:49.778Z,27.49
2022-07-29T16:02:17.672Z,27.52
2022-07-29T16:04:44.691Z,27.88
2022-07-29T16:07:11.357Z,27.57
2022-07-29T16:09:38.522Z,27.49
2022-07-29T16:12:10.005Z,27.17
2022-07-29T16:14:44.417Z,27.07
2022-07-29T16:17:14.413Z,26.57
2022-07-29T16:19:43.458Z,26.24
2022-07-29T16:22:10.700Z,25.90
2022-07-29T16:24:38.851Z,25.88
2022-07-29T16:27:05.681Z,25.71
2022-07-29T16:29:32.411Z,25.57
2022-07-29T16:31:59.212Z,25.44
2022-07-29T16:34:25.947Z,25.29
2022-07-29T16:36:52.668Z,24.78
2022-07-29T16:39:19.388Z,24.91
2022-07-29T16:41:46.173Z,24.97
2022-07-29T16:44:13.060Z,24.73
2022-07-29T16:46:41.460Z,24.82
2022-07-29T16:49:08.422Z,24.79
2022-07-29T16:51:35.719Z,24.70
2022-07-29T16:54:02.532Z,24.32
2022-07-29T16:56:29.251Z,24.39
2022-07-29T16:58:58.179Z,24.16
2022-07-29T17:01:25.019Z,24.04
2022-07-29T17:04:09.990Z,23.94
2022-07-29T17:06:38.823Z,23.87
2022-07-29T17:09:07.342Z,23.74
2022-07-29T17:11:52.883Z,23.69
2022-07-29T17:14:27.605Z,23.74
2022-07-29T17:17:00.973Z,23.71
2022-07-29T17:19:33.641Z,23.54
2022-07-29T17:22:09.474Z,23.45
2022-07-29T17:24:40.950Z,23.54
2022-07-29T17:27:08.738Z,23.56
2022-07-29T17:29:36.058Z,23.44
2022-07-29T17:32:03.619Z,23.44
2022-07-29T17:34:30.863Z,23.40
2022-07-29T17:36:57.977Z,23.36
2022-07-29T17:39:24.965Z,23.23
2022-07-29T17:41:51.994Z,23.13
2022-07-29T17:44:18.786Z,22.78
2022-07-29T17:46:45.625Z,22.68
2022-07-29T17:49:12.456Z,22.71
2022-07-29T17:51:39.233Z,22.52
2022-07-29T17:54:05.997Z,22.53
2022-07-29T17:56:32.729Z,22.24
2022-07-29T17:59:01.517Z,22.18
2022-07-29T18:01:28.607Z,22.25
2022-07-29T18:03:59.789Z,22.06
2022-07-29T18:06:27.208Z,22.22
2022-07-29T18:08:55.236Z,22.19
2022-07-29T18:11:23.317Z,22.23
2022-07-29T18:13:50.150Z,22.17
2022-07-29T18:16:17.180Z,21.98
2022-07-29T18:18:44.935Z,22.05
2022-07-29T18:21:12.141Z,21.97
2022-07-29T18:23:39.158Z,21.98
2022-07-29T18:26:05.849Z,21.83
2022-07-29T18:28:32.800Z,21.90
2022-07-29T18:31:00.705Z,21.88
2022-07-29T18:33:27.832Z,21.76
2022-07-29T18:36:04.215Z,21.79
2022-07-29T18:38:37.847Z,21.85
2022-07-29T18:41:04.788Z,21.75
2022-07-29T18:43:31.452Z,21.75
2022-07-29T18:45:58.200Z,21.66
2022-07-29T18:48:25.408Z,21.68
2022-07-29T18:50:52.095Z,21.64
2022-07-29T18:53:20.016Z,21.51
2022-07-29T18:55:46.854Z,21.53
2022-07-29T18:58:13.533Z,21.33
2022-07-29T19:00:40.475Z,21.33
2022-07-29T19:03:08.417Z,21.27
2022-07-29T19:05:35.542Z,21.22
2022-07-29T19:08:02.373Z,21.11
2022-07-29T19:10:29.564Z,21.10
2022-07-29T19:12:56.809Z,21.14
2022-07-29T19:15:23.723Z,21.05
2022-07-29T19:17:50.626Z,21.02
2022-07-29T19:20:17.496Z,21.07
2022-07-29T19:22:45.037Z,21.02
2022-07-29T19:25:12.111Z,20.95
2022-07-29T19:27:39.163Z,20.89
2022-07-29T19:30:08.051Z,20.87
2022-07-29T19:32:36.084Z,20.81
2022-07-29T19:35:22.443Z,20.84
2022-07-29T19:37:49.110Z,20.69
2022-07-29T19:40:16.682Z,20.64
2022-07-29T19:42:44.105Z,20.69
2022-07-29T19:45:11.913Z,20.49
2022-07-29T19:47:38.700Z,20.44
2022-07-29T19:50:06.106Z,20.41
2022-07-29T19:52:34.084Z,20.41
2022-07-29T19:55:07.067Z,20.46
2022-07-29T19:57:40.566Z,20.43
2022-07-29T20:00:11.389Z,20.35
2022-07-29T20:02:39.508Z,20.36
2022-07-29T20:05:07.009Z,20.28
2022-07-29T20:07:34.089Z,20.29
2022-07-29T20:10:01.013Z,20.25
2022-07-29T20:12:27.783Z,20.20
2022-07-29T20:14:54.601Z,20.14
2022-07-29T20:17:24.370Z,20.07
2022-07-29T20:19:51.779Z,20.12
2022-07-29T20:22:21.294Z,20.12
2022-07-29T20:24:48.721Z,20.10
2022-07-29T20:27:15.569Z,19.98
2022-07-29T20:29:42.585Z,19.95
2022-07-29T20:32:09.533Z,19.72
2022-07-29T20:34:36.240Z,19.79
2022-07-29T20:37:03.275Z,19.73
2022-07-29T20:39:30.447Z,19.62
2022-07-29T20:41:57.398Z,19.67
2022-07-29T20:44:24.419Z,19.53
2022-07-29T20:46:51.282Z,19.56
2022-07-29T20:49:18.101Z,19.54
2022-07-29T20:51:44.979Z,19.50
2022-07-29T20:54:12.395Z,19.48
2022-07-29T20:56:39.529Z,19.39
2022-07-29T20:59:06.333Z,19.39
2022-07-29T21:01:33.278Z,19.30
2022-07-29T21:04:01.604Z,19.29
2022-07-29T21:06:28.687Z,19.29
2022-07-29T21:08:59.763Z,19.27
2022-07-29T21:11:43.321Z,19.23
2022-07-29T21:14:27.196Z,19.13
2022-07-29T21:16:54.079Z,19.12
2022-07-29T21:19:20.870Z,19.12
2022-07-29T21:21:47.580Z,19.11
2022-07-29T21:24:14.397Z,19.10
2022-07-29T21:26:41.220Z,19.12
2022-07-29T21:29:07.997Z,19.08
2022-07-29T21:31:34.811Z,19.08
2022-07-29T21:34:01.702Z,18.89
2022-07-29T21:36:47.897Z,18.89
2022-07-29T21:39:15.267Z,18.94
2022-07-29T21:41:41.951Z,18.88
2022-07-29T21:44:08.837Z,18.87
2022-07-29T21:46:36.443Z,18.71
2022-07-29T21:49:03.482Z,18.77
2022-07-29T21:51:30.988Z,18.68
2022-07-29T21:53:57.765Z,18.73
2022-07-29T21:56:27.571Z,18.73
2022-07-29T21:58:55.311Z,18.68
2022-07-29T22:01:22.220Z,18.69
2022-07-29T22:03:49.185Z,18.54
2022-07-29T22:06:18.155Z,18.49
2022-07-29T22:08:46.061Z,18.46
2022-07-29T22:11:13.496Z,18.48
2022-07-29T22:13:40.360Z,18.40
2022-07-29T22:16:10.104Z,18.46
2022-07-29T22:18:37.136Z,18.37
2022-07-29T22:21:03.949Z,18.41
2022-07-29T22:23:30.995Z,18.34
2022-07-29T22:25:57.674Z,18.28
2022-07-29T22:28:24.415Z,18.22
2022-07-29T22:30:51.347Z,18.22
2022-07-29T22:33:18.349Z,18.20
2022-07-29T22:35:48.725Z,18.23
2022-07-29T22:38:19.252Z,18.18
2022-07-29T22:40:48.724Z,18.15
2022-07-29T22:43:17.393Z,18.08
2022-07-29T22:45:44.123Z,18.02
2022-07-29T22:48:11.206Z,18.04
2022-07-29T22:50:38.283Z,18.03
2022-07-29T22:53:05.073Z,18.05
2022-07-29T22:55:31.806Z,17.96
2022-07-29T22:57:58.793Z,17.95
2022-07-29T23:00:25.604Z,17.95
2022-07-29T23:02:52.413Z,17.99
2022-07-29T23:05:19.184Z,17.93
2022-07-29T23:07:45.995Z,17.78
2022-07-29T23:10:12.711Z,17.82
2022-07-29T23:12:39.443Z,17.77
2022-07-29T23:15:06.669Z,17.77
2022-07-29T23:17:36.598Z,17.67
2022-07-29T23:20:06.825Z,17.70
2022-07-29T23:22:34.088Z,17.74
2022-07-29T23:25:00.761Z,17.67
2022-07-29T23:27:27.527Z,17.59
2022-07-29T23:29:54.268Z,17.56
2022-07-29T23:32:20.999Z,17.63
2022-07-29T23:34:47.739Z,17.66
2022-07-29T23:37:14.522Z,17.54
2022-07-29T23:39:41.368Z,17.58
2022-07-29T23:42:08.089Z,17.53
2022-07-29T23:44:34.823Z,17.53
2022-07-29T23:47:01.913Z,17.54
2022-07-29T23:49:28.910Z,17.55
2022-07-29T23:51:55.538Z,17.54
2022-07-29T23:54:22.262Z,17.52
2022-07-29T23:56:49.002Z,17.47
2022-07-29T23:59:15.675Z,17.52
